createdAt,value
2018-07-08T00:01:32.524Z,29.70
2018-07-08T00:04:00.835Z,29.60
2018-07-08T00:06:29.231Z,29.70
2018-07-08T00:08:57.609Z,29.70
2018-07-08T00:11:25.990Z,29.80
2018-07-08T00:13:54.387Z,29.80
2018-07-08T00:16:22.743Z,29.80
2018-07-08T00:18:51.107Z,29.90
2018-07-08T00:23:47.474Z,30.00
2018-07-08T00:26:15.854Z,30.00
2018-07-08T00:28:44.197Z,30.10
2018-07-08T00:31:12.507Z,30.00
2018-07-08T00:33:40.835Z,30.10
2018-07-08T00:36:09.154Z,30.00
2018-07-08T00:38:37.471Z,30.10
2018-07-08T00:41:05.944Z,30.10
2018-07-08T00:43:34.314Z,30.10
2018-07-08T00:46:02.938Z,30.10
2018-07-08T00:48:31.382Z,30.10
2018-07-08T00:50:59.778Z,30.10
2018-07-08T00:53:28.165Z,30.20
2018-07-08T00:55:56.631Z,30.20
2018-07-08T00:58:24.959Z,30.20
2018-07-08T01:00:53.375Z,30.10
2018-07-08T01:03:21.691Z,30.20
2018-07-08T01:05:50.055Z,30.40
2018-07-08T01:08:18.610Z,30.40
2018-07-08T01:10:46.959Z,30.90
2018-07-08T01:13:15.402Z,30.60
2018-07-08T01:15:43.746Z,30.60
2018-07-08T01:18:12.143Z,31.20
2018-07-08T01:20:40.666Z,30.70
2018-07-08T01:23:09.075Z,30.70
2018-07-08T01:25:48.819Z,30.60
2018-07-08T01:28:17.161Z,30.60
2018-07-08T01:30:45.708Z,30.60
2018-07-08T01:33:14.044Z,30.80
2018-07-08T01:35:42.428Z,30.70
2018-07-08T01:38:10.908Z,31.20
2018-07-08T01:40:39.381Z,30.90
2018-07-08T01:43:07.896Z,30.90
2018-07-08T01:45:36.287Z,30.90
2018-07-08T01:48:06.196Z,31.00
2018-07-08T01:50:34.732Z,31.00
2018-07-08T01:53:03.285Z,31.10
2018-07-08T01:55:32.287Z,31.60
2018-07-08T01:58:01.018Z,31.10
2018-07-08T02:00:29.468Z,31.20
2018-07-08T02:02:57.992Z,31.30
2018-07-08T02:05:26.452Z,31.10
2018-07-08T02:07:54.849Z,31.20
2018-07-08T02:10:23.223Z,31.20
2018-07-08T02:12:51.659Z,31.20
2018-07-08T02:15:20.092Z,31.30
2018-07-08T02:17:48.473Z,31.30
2018-07-08T02:20:16.921Z,31.10
2018-07-08T02:22:45.915Z,31.40
2018-07-08T02:25:14.178Z,31.30
2018-07-08T02:27:42.516Z,31.20
2018-07-08T02:30:10.836Z,31.30
2018-07-08T02:32:39.546Z,31.30
2018-07-08T02:35:08.239Z,31.30
2018-07-08T02:37:36.661Z,31.30
2018-07-08T02:40:05.389Z,31.30
2018-07-08T02:42:33.850Z,31.50
2018-07-08T02:45:02.380Z,31.30
2018-07-08T02:47:30.722Z,31.40
2018-07-08T02:49:59.198Z,31.40
2018-07-08T02:52:27.544Z,31.30
2018-07-08T02:54:55.897Z,31.30
2018-07-08T02:57:24.176Z,31.30
2018-07-08T02:59:52.563Z,31.20
2018-07-08T03:02:20.920Z,31.30
2018-07-08T03:04:49.229Z,31.20
2018-07-08T03:07:17.573Z,31.30
2018-07-08T03:09:45.907Z,31.40
2018-07-08T03:12:14.386Z,32.00
2018-07-08T03:14:42.811Z,31.60
2018-07-08T03:17:11.242Z,31.60
2018-07-08T03:22:07.765Z,32.00
2018-07-08T03:24:36.220Z,31.60
2018-07-08T03:27:04.719Z,31.60
2018-07-08T03:29:33.158Z,32.20
2018-07-08T03:32:01.558Z,31.70
2018-07-08T03:34:29.930Z,31.70
2018-07-08T03:36:58.432Z,31.70
2018-07-08T03:39:26.907Z,31.80
2018-07-08T03:41:55.236Z,31.70
2018-07-08T03:44:23.645Z,31.80
2018-07-08T03:46:52.059Z,31.90
2018-07-08T03:49:20.408Z,31.80
2018-07-08T03:51:48.756Z,32.30
2018-07-08T03:54:27.892Z,31.80
2018-07-08T03:56:56.585Z,31.90
2018-07-08T03:59:24.914Z,31.90
2018-07-08T04:01:53.239Z,31.90
2018-07-08T04:04:21.683Z,31.80
2018-07-08T04:06:50.161Z,31.80
2018-07-08T04:09:19.304Z,31.80
2018-07-08T04:11:48.167Z,31.70
2018-07-08T04:14:17.113Z,31.70
2018-07-08T04:16:46.069Z,31.70
2018-07-08T04:19:14.699Z,31.70
2018-07-08T04:21:49.815Z,31.50
2018-07-08T04:24:18.276Z,31.70
2018-07-08T04:26:46.786Z,31.70
2018-07-08T04:29:15.271Z,32.30
2018-07-08T04:31:43.737Z,31.70
2018-07-08T04:34:12.400Z,31.60
2018-07-08T04:36:40.790Z,31.70
2018-07-08T04:39:09.724Z,31.50
2018-07-08T04:41:38.026Z,31.50
2018-07-08T04:44:06.381Z,31.40
2018-07-08T04:46:34.847Z,31.50
2018-07-08T04:49:03.382Z,31.40
2018-07-08T04:51:31.781Z,31.40
2018-07-08T04:54:00.232Z,31.40
2018-07-08T04:56:28.976Z,31.30
2018-07-08T04:58:57.468Z,31.20
2018-07-08T05:01:25.800Z,31.20
2018-07-08T05:03:54.223Z,31.20
2018-07-08T05:06:22.558Z,31.30
2018-07-08T05:08:50.956Z,31.20
2018-07-08T05:11:19.308Z,31.20
2018-07-08T05:13:47.715Z,31.20
2018-07-08T05:16:16.092Z,31.20
2018-07-08T05:18:44.415Z,31.10
2018-07-08T05:23:41.041Z,31.10
2018-07-08T05:26:09.362Z,31.00
2018-07-08T05:28:37.691Z,31.00
2018-07-08T05:31:06.151Z,31.60
2018-07-08T05:33:34.472Z,30.90
2018-07-08T05:36:02.850Z,31.00
2018-07-08T05:38:31.217Z,31.10
2018-07-08T05:40:59.658Z,31.10
2018-07-08T05:43:28.088Z,31.70
2018-07-08T05:45:56.395Z,31.20
2018-07-08T05:48:24.827Z,31.10
2018-07-08T05:50:53.185Z,31.20
2018-07-08T05:53:21.601Z,31.30
2018-07-08T05:55:49.896Z,31.20
2018-07-08T05:58:18.315Z,31.00
2018-07-08T06:00:46.649Z,31.00
2018-07-08T06:03:14.913Z,31.00
2018-07-08T06:05:43.191Z,30.90
2018-07-08T06:08:11.511Z,30.90
2018-07-08T06:10:39.868Z,30.90
2018-07-08T06:13:08.228Z,31.00
2018-07-08T06:15:36.788Z,31.00
2018-07-08T06:18:05.115Z,30.80
2018-07-08T06:23:01.479Z,31.00
2018-07-08T06:25:29.900Z,31.00
2018-07-08T06:27:58.496Z,30.90
2018-07-08T06:30:26.984Z,30.90
2018-07-08T06:32:55.341Z,30.60
2018-07-08T06:35:23.737Z,30.60
2018-07-08T06:37:52.324Z,30.90
2018-07-08T06:42:48.697Z,30.60
2018-07-08T06:45:17.009Z,30.90
2018-07-08T06:47:51.915Z,30.40
2018-07-08T06:50:20.233Z,30.40
2018-07-08T06:52:48.619Z,30.50
2018-07-08T06:55:16.935Z,30.40
2018-07-08T06:57:45.303Z,30.60
2018-07-08T07:00:13.741Z,30.40
2018-07-08T07:02:42.178Z,31.00
2018-07-08T07:05:10.504Z,30.50
2018-07-08T07:07:38.871Z,30.30
2018-07-08T07:10:07.203Z,30.30
2018-07-08T07:12:35.619Z,30.30
2018-07-08T07:15:04.034Z,30.40
2018-07-08T07:17:32.851Z,30.40
2018-07-08T07:20:01.284Z,30.50
2018-07-08T07:22:29.905Z,30.50
2018-07-08T07:24:58.632Z,30.30
2018-07-08T07:27:27.412Z,30.40
2018-07-08T07:29:55.857Z,30.30
2018-07-08T07:32:24.191Z,30.20
2018-07-08T07:34:52.864Z,30.10
2018-07-08T07:37:21.432Z,30.20
2018-07-08T07:39:49.828Z,30.10
2018-07-08T07:42:18.302Z,30.00
2018-07-08T07:44:46.689Z,30.00
2018-07-08T07:47:15.087Z,30.00
2018-07-08T07:49:43.585Z,30.20
2018-07-08T07:52:11.942Z,30.20
2018-07-08T07:54:40.316Z,30.20
2018-07-08T07:57:08.787Z,30.20
2018-07-08T07:59:37.207Z,30.20
2018-07-08T08:02:05.816Z,29.90
2018-07-08T08:04:34.478Z,30.00
2018-07-08T08:07:03.046Z,29.80
2018-07-08T08:10:35.058Z,29.70
2018-07-08T08:13:03.622Z,29.90
2018-07-08T08:15:32.137Z,29.80
2018-07-08T08:18:00.584Z,29.80
2018-07-08T08:20:29.200Z,29.70
2018-07-08T08:22:57.583Z,29.50
2018-07-08T08:25:25.968Z,29.40
2018-07-08T08:27:54.256Z,29.20
2018-07-08T08:30:22.624Z,29.30
2018-07-08T08:32:51.059Z,28.90
2018-07-08T08:35:20.463Z,29.10
2018-07-08T08:37:54.816Z,28.90
2018-07-08T08:40:24.294Z,28.90
2018-07-08T08:42:53.032Z,28.90
2018-07-08T08:45:22.335Z,28.80
2018-07-08T08:47:50.651Z,28.70
2018-07-08T08:50:18.982Z,28.90
2018-07-08T08:52:47.303Z,28.70
2018-07-08T08:55:15.949Z,28.40
2018-07-08T08:57:44.253Z,28.60
2018-07-08T09:00:14.746Z,28.20
2018-07-08T09:02:43.072Z,28.30
2018-07-08T09:05:11.396Z,28.10
2018-07-08T09:07:39.975Z,28.30
2018-07-08T09:10:08.546Z,28.00
2018-07-08T09:12:36.865Z,27.70
2018-07-08T09:15:05.265Z,27.90
2018-07-08T09:17:33.645Z,27.90
2018-07-08T09:20:02.191Z,28.00
2018-07-08T09:22:30.523Z,28.30
2018-07-08T09:24:58.871Z,27.60
2018-07-08T09:27:27.558Z,26.90
2018-07-08T09:29:55.914Z,27.10
2018-07-08T09:32:24.224Z,27.10
2018-07-08T09:34:52.525Z,26.80
2018-07-08T09:37:20.825Z,26.60
2018-07-08T09:39:49.190Z,26.90
2018-07-08T09:42:17.626Z,26.10
2018-07-08T09:44:45.963Z,26.00
2018-07-08T09:49:42.308Z,25.70
2018-07-08T09:52:10.611Z,25.40
2018-07-08T09:54:39.137Z,25.30
2018-07-08T09:57:07.435Z,25.10
2018-07-08T09:59:35.752Z,24.60
2018-07-08T10:02:04.108Z,24.60
2018-07-08T10:04:32.632Z,24.30
2018-07-08T10:07:01.027Z,24.20
2018-07-08T10:09:29.991Z,23.90
2018-07-08T10:11:58.505Z,23.60
2018-07-08T10:14:26.818Z,23.40
2018-07-08T10:16:55.147Z,23.30
2018-07-08T10:19:23.512Z,23.10
2018-07-08T10:21:51.744Z,22.90
2018-07-08T10:24:20.047Z,22.60
2018-07-08T10:27:17.999Z,22.30
2018-07-08T10:29:46.529Z,22.20
2018-07-08T10:32:15.028Z,22.10
2018-07-08T10:34:43.292Z,21.90
2018-07-08T10:37:11.613Z,21.80
2018-07-08T10:39:39.999Z,21.50
2018-07-08T10:42:08.328Z,21.30
2018-07-08T10:44:36.605Z,21.20
2018-07-08T10:47:04.913Z,21.10
2018-07-08T10:49:33.321Z,21.00
2018-07-08T10:52:01.805Z,20.80
2018-07-08T10:54:30.208Z,20.70
2018-07-08T10:56:58.765Z,20.60
2018-07-08T10:59:27.416Z,20.50
2018-07-08T11:01:55.705Z,20.50
2018-07-08T11:04:24.001Z,20.30
2018-07-08T11:06:52.460Z,20.30
2018-07-08T11:09:20.764Z,20.10
2018-07-08T11:11:49.115Z,20.10
2018-07-08T11:14:17.509Z,20.00
2018-07-08T11:16:45.916Z,19.90
2018-07-08T11:19:14.243Z,19.70
2018-07-08T11:21:42.652Z,19.60
2018-07-08T11:24:11.132Z,19.60
2018-07-08T11:26:39.467Z,19.50
2018-07-08T11:29:07.863Z,19.40
2018-07-08T11:31:36.186Z,19.40
2018-07-08T11:34:04.688Z,19.30
2018-07-08T11:36:33.073Z,19.20
2018-07-08T11:39:01.771Z,19.20
2018-07-08T11:41:30.222Z,19.10
2018-07-08T11:43:58.960Z,19.00
2018-07-08T11:46:27.493Z,18.90
2018-07-08T11:48:56.314Z,18.80
2018-07-08T11:51:24.700Z,18.80
2018-07-08T11:53:53.095Z,18.70
2018-07-08T11:56:21.440Z,18.60
2018-07-08T11:58:49.853Z,18.50
2018-07-08T12:01:18.224Z,18.50
2018-07-08T12:03:46.566Z,18.50
2018-07-08T12:06:14.945Z,18.30
2018-07-08T12:08:43.360Z,18.30
2018-07-08T12:11:11.681Z,18.30
2018-07-08T12:13:40.027Z,18.40
2018-07-08T12:16:08.408Z,18.20
2018-07-08T12:18:36.781Z,18.20
2018-07-08T12:21:05.204Z,18.50
2018-07-08T12:23:33.732Z,18.20
2018-07-08T12:26:02.136Z,18.30
2018-07-08T12:28:30.495Z,18.20
2018-07-08T12:30:59.123Z,18.20
2018-07-08T12:33:27.740Z,18.20
2018-07-08T12:35:56.076Z,18.20
2018-07-08T12:38:24.421Z,18.20
2018-07-08T12:40:52.710Z,18.20
2018-07-08T12:43:21.032Z,18.20
2018-07-08T12:45:49.411Z,18.30
2018-07-08T12:48:17.706Z,18.20
2018-07-08T12:50:46.014Z,18.10
2018-07-08T12:53:14.287Z,18.20
2018-07-08T12:55:42.765Z,18.10
2018-07-08T12:58:11.098Z,18.10
2018-07-08T13:00:39.400Z,18.10
2018-07-08T13:03:07.713Z,18.20
2018-07-08T13:05:36.021Z,18.10
2018-07-08T13:08:04.416Z,18.10
2018-07-08T13:10:32.832Z,18.00
2018-07-08T13:13:01.169Z,18.50
2018-07-08T13:15:29.567Z,17.90
2018-07-08T13:17:57.891Z,17.90
2018-07-08T13:20:26.205Z,17.70
2018-07-08T13:22:54.565Z,17.80
2018-07-08T13:25:23.823Z,17.70
2018-07-08T13:27:52.207Z,17.60
2018-07-08T13:30:20.545Z,17.50
2018-07-08T13:32:48.900Z,17.40
2018-07-08T13:35:17.236Z,17.30
2018-07-08T13:37:45.545Z,17.10
2018-07-08T13:40:13.838Z,17.00
2018-07-08T13:42:42.185Z,17.00
2018-07-08T13:45:10.512Z,16.90
2018-07-08T13:47:38.985Z,16.80
2018-07-08T13:50:07.687Z,16.80
2018-07-08T13:52:35.984Z,16.70
2018-07-08T13:55:04.531Z,16.70
2018-07-08T13:57:33.006Z,16.70
2018-07-08T14:00:02.551Z,16.60
2018-07-08T14:04:59.102Z,16.50
2018-07-08T14:07:27.796Z,16.40
2018-07-08T14:09:56.080Z,16.50
2018-07-08T14:12:24.611Z,16.90
2018-07-08T14:14:53.118Z,16.40
2018-07-08T14:17:21.469Z,16.80
2018-07-08T14:19:49.855Z,16.40
2018-07-08T14:22:18.200Z,16.40
2018-07-08T14:24:46.500Z,16.40
2018-07-08T14:27:14.847Z,16.40
2018-07-08T14:29:43.184Z,16.30
2018-07-08T14:32:11.504Z,16.30
2018-07-08T14:34:39.860Z,16.90
2018-07-08T14:37:08.196Z,16.40
2018-07-08T14:39:36.631Z,16.50
2018-07-08T14:42:04.979Z,16.60
2018-07-08T14:44:33.496Z,16.60
2018-07-08T14:47:01.941Z,16.80
2018-07-08T14:49:30.500Z,16.80
2018-07-08T14:54:27.049Z,17.20
2018-07-08T14:56:55.377Z,17.30
2018-07-08T14:59:23.728Z,17.50
2018-07-08T15:01:52.196Z,17.60
2018-07-08T15:04:20.728Z,17.70
2018-07-08T15:06:49.033Z,17.90
2018-07-08T15:09:17.348Z,18.00
2018-07-08T15:11:45.654Z,18.10
2018-07-08T15:14:14.004Z,18.10
2018-07-08T15:16:42.461Z,18.30
2018-07-08T15:19:10.795Z,18.50
2018-07-08T15:21:39.120Z,18.60
2018-07-08T15:24:07.483Z,18.70
2018-07-08T15:26:35.860Z,18.90
2018-07-08T15:29:04.245Z,19.00
2018-07-08T15:34:00.703Z,19.20
2018-07-08T15:36:29.164Z,19.20
2018-07-08T15:38:58.023Z,19.40
2018-07-08T15:41:26.375Z,19.30
2018-07-08T15:43:54.684Z,19.40
2018-07-08T15:46:23.075Z,19.40
2018-07-08T15:48:51.459Z,19.60
2018-07-08T15:51:20.055Z,19.50
2018-07-08T15:53:48.381Z,19.50
2018-07-08T15:56:16.708Z,20.10
2018-07-08T15:58:45.009Z,19.60
2018-07-08T16:01:13.333Z,19.70
2018-07-08T16:03:41.626Z,19.70
2018-07-08T16:06:10.012Z,19.90
2018-07-08T16:08:38.271Z,20.00
2018-07-08T16:11:07.224Z,20.10
2018-07-08T16:13:35.560Z,20.10
2018-07-08T16:16:03.983Z,20.20
2018-07-08T16:18:32.596Z,20.30
2018-07-08T16:21:01.294Z,20.30
2018-07-08T16:23:29.720Z,20.30
2018-07-08T16:25:58.396Z,20.40
2018-07-08T16:28:26.926Z,20.40
2018-07-08T16:30:55.353Z,20.40
2018-07-08T16:33:23.720Z,20.40
2018-07-08T16:35:53.666Z,20.40
2018-07-08T16:38:23.220Z,20.50
2018-07-08T16:40:52.584Z,20.50
2018-07-08T16:43:20.952Z,20.60
2018-07-08T16:45:49.501Z,20.70
2018-07-08T16:48:17.983Z,20.70
2018-07-08T16:50:46.888Z,20.80
2018-07-08T16:53:15.236Z,20.80
2018-07-08T16:55:43.967Z,20.90
2018-07-08T16:58:12.479Z,20.90
2018-07-08T17:00:40.817Z,21.00
2018-07-08T17:03:09.204Z,21.00
2018-07-08T17:05:37.617Z,20.70
2018-07-08T17:08:06.089Z,21.00
2018-07-08T17:10:34.692Z,21.20
2018-07-08T17:13:03.472Z,21.20
2018-07-08T17:15:31.933Z,21.30
2018-07-08T17:18:00.504Z,21.30
2018-07-08T17:20:29.216Z,21.30
2018-07-08T17:22:57.641Z,21.40
2018-07-08T17:25:26.048Z,21.40
2018-07-08T17:27:54.422Z,21.50
2018-07-08T17:30:22.822Z,21.50
2018-07-08T17:32:51.343Z,21.50
2018-07-08T17:35:19.799Z,21.40
2018-07-08T17:37:48.105Z,21.50
2018-07-08T17:40:16.447Z,21.50
2018-07-08T17:42:44.762Z,21.50
2018-07-08T17:45:13.068Z,21.60
2018-07-08T17:47:41.465Z,21.70
2018-07-08T17:50:09.824Z,21.60
2018-07-08T17:52:38.176Z,21.70
2018-07-08T17:55:06.473Z,21.70
2018-07-08T17:57:34.839Z,21.70
2018-07-08T18:00:03.241Z,21.70
2018-07-08T18:02:32.109Z,21.80
2018-07-08T18:05:00.581Z,21.70
2018-07-08T18:07:29.575Z,21.70
2018-07-08T18:09:57.959Z,21.80
2018-07-08T18:14:54.394Z,21.90
2018-07-08T18:17:22.953Z,21.80
2018-07-08T18:19:51.281Z,21.80
2018-07-08T18:22:19.651Z,21.90
2018-07-08T18:24:48.058Z,21.80
2018-07-08T18:27:16.719Z,22.00
2018-07-08T18:29:45.074Z,21.90
2018-07-08T18:32:13.417Z,22.10
2018-07-08T18:34:42.113Z,22.00
2018-07-08T18:37:10.495Z,22.10
2018-07-08T18:39:38.894Z,22.10
2018-07-08T18:42:07.285Z,22.30
2018-07-08T18:44:35.806Z,22.20
2018-07-08T18:47:04.199Z,22.20
2018-07-08T18:49:33.017Z,22.30
2018-07-08T18:52:01.511Z,22.30
2018-07-08T18:54:30.119Z,22.20
2018-07-08T18:56:59.197Z,22.40
2018-07-08T18:59:27.755Z,22.30
2018-07-08T19:01:56.416Z,22.30
2018-07-08T19:04:24.827Z,22.50
2018-07-08T19:06:53.167Z,22.50
2018-07-08T19:09:21.547Z,22.50
2018-07-08T19:11:49.952Z,22.50
2018-07-08T19:14:18.340Z,22.60
2018-07-08T19:16:46.855Z,22.60
2018-07-08T19:19:15.210Z,22.50
2018-07-08T19:24:11.528Z,22.70
2018-07-08T19:26:39.837Z,22.70
2018-07-08T19:29:08.234Z,22.60
2018-07-08T19:31:36.552Z,22.60
2018-07-08T19:34:04.868Z,22.70
2018-07-08T19:36:33.406Z,22.40
2018-07-08T19:39:01.953Z,21.60
2018-07-08T19:41:30.519Z,21.60
2018-07-08T19:43:59.425Z,21.50
2018-07-08T19:46:28.273Z,21.30
2018-07-08T19:48:57.013Z,21.30
2018-07-08T19:51:25.574Z,21.50
2018-07-08T19:53:54.415Z,22.30
2018-07-08T19:56:22.863Z,22.00
2018-07-08T19:58:51.192Z,22.00
2018-07-08T20:01:19.555Z,22.00
2018-07-08T20:03:47.901Z,22.10
2018-07-08T20:06:16.250Z,22.20
2018-07-08T20:08:44.709Z,22.20
2018-07-08T20:11:13.097Z,22.30
2018-07-08T20:13:42.090Z,22.40
2018-07-08T20:16:10.492Z,22.50
2018-07-08T20:18:38.928Z,22.60
2018-07-08T20:21:07.333Z,22.80
2018-07-08T20:23:35.643Z,23.00
2018-07-08T20:26:05.248Z,23.10
2018-07-08T20:28:33.904Z,23.20
2018-07-08T20:31:02.732Z,23.50
2018-07-08T20:33:31.313Z,23.70
2018-07-08T20:36:00.007Z,23.80
2018-07-08T20:38:28.679Z,23.80
2018-07-08T20:40:57.440Z,24.00
2018-07-08T20:43:25.831Z,24.00
2018-07-08T20:45:54.338Z,24.10
2018-07-08T20:48:22.995Z,24.10
2018-07-08T20:50:51.383Z,24.10
2018-07-08T20:53:19.864Z,24.30
2018-07-08T20:55:49.038Z,24.20
2018-07-08T20:58:17.388Z,24.40
2018-07-08T21:00:46.240Z,24.40
2018-07-08T21:03:14.657Z,24.40
2018-07-08T21:05:43.142Z,24.30
2018-07-08T21:08:11.584Z,24.40
2018-07-08T21:10:40.268Z,24.60
2018-07-08T21:13:08.941Z,24.80
2018-07-08T21:15:37.239Z,25.00
2018-07-08T21:18:05.941Z,25.10
2018-07-08T21:20:34.572Z,25.30
2018-07-08T21:23:03.201Z,25.40
2018-07-08T21:25:31.835Z,26.00
2018-07-08T21:28:01.132Z,25.50
2018-07-08T21:30:30.280Z,25.70
2018-07-08T21:32:58.966Z,25.80
2018-07-08T21:35:27.666Z,25.70
2018-07-08T21:37:56.137Z,25.70
2018-07-08T21:40:24.661Z,25.70
2018-07-08T21:42:53.448Z,25.80
2018-07-08T21:45:22.431Z,25.90
2018-07-08T21:47:50.774Z,26.00
2018-07-08T21:50:19.209Z,26.00
2018-07-08T21:52:47.596Z,26.20
2018-07-08T21:55:17.470Z,26.00
2018-07-08T21:57:45.881Z,26.10
2018-07-08T22:00:14.415Z,26.20
2018-07-08T22:02:44.848Z,26.30
2018-07-08T22:05:13.493Z,26.40
2018-07-08T22:07:48.213Z,26.30
2018-07-08T22:10:16.781Z,26.40
2018-07-08T22:12:45.452Z,26.30
2018-07-08T22:15:13.796Z,26.30
2018-07-08T22:17:42.770Z,26.30
2018-07-08T22:20:11.993Z,26.30
2018-07-08T22:22:40.432Z,26.20
2018-07-08T22:25:09.182Z,26.20
2018-07-08T22:27:37.596Z,26.30
2018-07-08T22:30:06.225Z,26.20
2018-07-08T22:32:34.705Z,26.40
2018-07-08T22:35:03.085Z,26.30
2018-07-08T22:37:31.756Z,26.40
2018-07-08T22:40:00.441Z,26.60
2018-07-08T22:42:28.988Z,26.60
2018-07-08T22:44:57.468Z,26.80
2018-07-08T22:47:25.884Z,27.00
2018-07-08T22:49:54.385Z,27.00
2018-07-08T22:52:22.754Z,27.20
2018-07-08T22:54:51.088Z,27.20
2018-07-08T22:57:19.507Z,27.30
2018-07-08T23:01:03.261Z,27.30
2018-07-08T23:03:54.495Z,27.30
2018-07-08T23:06:22.923Z,27.40
2018-07-08T23:08:52.311Z,27.50
2018-07-08T23:11:21.535Z,27.70
2018-07-08T23:13:50.804Z,27.70
2018-07-08T23:16:19.826Z,27.70
2018-07-08T23:18:48.324Z,27.70
2018-07-08T23:21:16.750Z,27.70
2018-07-08T23:23:45.284Z,27.80
2018-07-08T23:26:13.735Z,27.90
2018-07-08T23:28:42.146Z,27.90
2018-07-08T23:31:11.081Z,27.90
2018-07-08T23:33:39.496Z,28.20
2018-07-08T23:36:08.601Z,28.00
2018-07-08T23:38:37.178Z,28.00
2018-07-08T23:41:06.628Z,28.00
2018-07-08T23:43:35.125Z,28.10
2018-07-08T23:46:04.035Z,28.10
2018-07-08T23:48:33.076Z,28.10
2018-07-08T23:51:01.504Z,28.20
2018-07-08T23:53:30.067Z,28.20
2018-07-08T23:55:58.546Z,28.20
2018-07-08T23:58:27.016Z,28.30
